Paris, Ohio
Current Conditions -  °F | °C
As of 9:51 AM on Tuesday 21 Oct 2014 (Local Time) from KCAK Reporting Station
Light Rain Light Rain  
Wind Chill: 50°   Ceiling: 900
Heat Index: 50°   Visibility: 2mi
Dew Point: 46°   Wind: 8mph
Humidity: 86%   Direction: 330°NNW
Pressure: 29.91"   Gusts: NA
Location:  40.8°N, 81.16°W
Report Text: KCAK 211351Z 33007KT 2SM -RA BR BKN009 OVC032 10/08 A2991 RMK AO2 SFC VIS 3 SLP130 P0001 T01000078 $
Loading
Personal Weather Stations






























Interactive Weather Map
Tropical Storm Tracking
New forecast layout! Learn more

10-Day Weather Forecast

Advertisements
Track Severe Weather on mobile